createdAt,value
2023-05-02T00:00:32.141Z,611.00
2023-05-02T00:01:32.103Z,610.00
2023-05-02T00:02:32.314Z,609.00
2023-05-02T00:03:32.175Z,608.00
2023-05-02T00:04:32.193Z,609.00
2023-05-02T00:05:32.136Z,608.00
2023-05-02T00:06:32.171Z,606.00
2023-05-02T00:07:32.067Z,607.00
2023-05-02T00:08:32.076Z,606.00
2023-05-02T00:09:32.051Z,608.00
2023-05-02T00:10:32.117Z,608.00
2023-05-02T00:11:32.049Z,608.00
2023-05-02T00:12:32.027Z,610.00
2023-05-02T00:13:32.023Z,615.00
2023-05-02T00:14:32.051Z,617.00
2023-05-02T00:15:32.032Z,616.00
2023-05-02T00:16:32.097Z,614.00
2023-05-02T00:17:32.048Z,613.00
2023-05-02T00:18:32.026Z,611.00
2023-05-02T00:19:32.000Z,612.00
2023-05-02T00:20:31.980Z,612.00
2023-05-02T00:21:32.036Z,611.00
2023-05-02T00:22:31.992Z,611.00
2023-05-02T00:23:31.960Z,610.00
2023-05-02T00:24:31.964Z,608.00
2023-05-02T00:25:32.001Z,607.00
2023-05-02T00:26:31.969Z,606.00
2023-05-02T00:27:31.935Z,606.00
2023-05-02T00:28:31.959Z,609.00
2023-05-02T00:29:31.978Z,612.00
2023-05-02T00:30:31.914Z,612.00
2023-05-02T00:31:31.975Z,611.00
2023-05-02T00:32:31.943Z,610.00
2023-05-02T00:33:31.936Z,608.00
2023-05-02T00:34:31.916Z,609.00
2023-05-02T00:35:31.919Z,611.00
2023-05-02T00:36:31.882Z,612.00
2023-05-02T00:37:31.911Z,611.00
2023-05-02T00:38:31.873Z,613.00
2023-05-02T00:39:31.902Z,612.00
2023-05-02T00:40:31.855Z,612.00
2023-05-02T00:41:31.851Z,613.00
2023-05-02T00:42:31.871Z,612.00
2023-05-02T00:43:31.900Z,615.00
2023-05-02T00:44:31.829Z,615.00
2023-05-02T00:45:31.831Z,615.00
2023-05-02T00:46:31.897Z,614.00
2023-05-02T00:47:31.820Z,614.00
2023-05-02T00:48:31.803Z,616.00
2023-05-02T00:49:31.827Z,616.00
2023-05-02T00:50:31.800Z,617.00
2023-05-02T00:51:31.792Z,615.00
2023-05-02T00:52:32.778Z,617.00
2023-05-02T00:53:31.778Z,614.00
2023-05-02T00:54:31.785Z,612.00
2023-05-02T00:55:31.763Z,613.00
2023-05-02T00:56:31.779Z,614.00
2023-05-02T00:57:31.741Z,614.00
2023-05-02T00:58:31.718Z,613.00
2023-05-02T00:59:31.755Z,609.00
2023-05-02T01:00:31.729Z,608.00
2023-05-02T01:01:31.789Z,612.00
2023-05-02T01:02:31.733Z,611.00
2023-05-02T01:03:31.739Z,611.00
2023-05-02T01:04:31.756Z,607.00
2023-05-02T01:05:31.725Z,610.00
2023-05-02T01:06:31.745Z,609.00
2023-05-02T01:07:31.693Z,609.00
2023-05-02T01:08:31.674Z,609.00
2023-05-02T01:09:31.671Z,608.00
2023-05-02T01:10:31.662Z,609.00
2023-05-02T01:11:31.648Z,608.00
2023-05-02T01:12:31.657Z,608.00
2023-05-02T01:13:31.665Z,605.00
2023-05-02T01:14:31.661Z,606.00
2023-05-02T01:15:31.724Z,607.00
2023-05-02T01:16:31.729Z,607.00
2023-05-02T01:17:31.709Z,607.00
2023-05-02T01:18:31.756Z,604.00
2023-05-02T01:19:31.693Z,605.00
2023-05-02T01:20:31.767Z,606.00
2023-05-02T01:21:31.735Z,605.00
2023-05-02T01:22:31.733Z,600.00
2023-05-02T01:23:31.780Z,601.00
2023-05-02T01:24:31.799Z,602.00
2023-05-02T01:25:31.757Z,600.00
2023-05-02T01:26:31.853Z,600.00
2023-05-02T01:27:31.880Z,604.00
2023-05-02T01:28:31.865Z,607.00
2023-05-02T01:29:31.886Z,609.00
2023-05-02T01:30:31.867Z,612.00
2023-05-02T01:31:31.959Z,612.00
2023-05-02T01:32:32.037Z,613.00
2023-05-02T01:33:32.139Z,613.00
2023-05-02T01:34:32.218Z,614.00
2023-05-02T01:35:32.233Z,614.00
2023-05-02T01:36:32.262Z,613.00
2023-05-02T01:37:32.243Z,614.00
2023-05-02T01:38:32.255Z,615.00
2023-05-02T01:39:32.275Z,614.00
2023-05-02T01:40:32.273Z,613.00
2023-05-02T01:41:32.299Z,616.00
2023-05-02T01:42:32.310Z,616.00
2023-05-02T01:43:32.348Z,616.00
2023-05-02T01:44:32.329Z,615.00
2023-05-02T01:45:32.433Z,617.00
2023-05-02T01:46:32.466Z,613.00
2023-05-02T01:47:32.468Z,611.00
2023-05-02T01:48:32.578Z,607.00
2023-05-02T01:49:32.466Z,606.00
2023-05-02T01:50:32.549Z,603.00
2023-05-02T01:51:32.593Z,603.00
2023-05-02T01:52:32.598Z,607.00
2023-05-02T01:53:32.590Z,608.00
2023-05-02T01:54:32.611Z,609.00
2023-05-02T01:55:32.603Z,610.00
2023-05-02T01:56:32.634Z,611.00
2023-05-02T01:57:32.740Z,611.00
2023-05-02T01:58:32.869Z,612.00
2023-05-02T01:59:32.939Z,614.00
2023-05-02T02:00:33.049Z,613.00
2023-05-02T02:01:33.229Z,612.00
2023-05-02T02:02:33.262Z,612.00
2023-05-02T02:03:33.304Z,614.00
2023-05-02T02:04:33.351Z,614.00
2023-05-02T02:05:33.266Z,615.00
2023-05-02T02:06:33.292Z,612.00
2023-05-02T02:07:33.311Z,614.00
2023-05-02T02:08:33.372Z,613.00
2023-05-02T02:09:33.373Z,612.00
2023-05-02T02:10:33.412Z,611.00
2023-05-02T02:11:33.403Z,612.00
2023-05-02T02:12:33.434Z,615.00
2023-05-02T02:13:33.518Z,614.00
2023-05-02T02:14:33.601Z,613.00
2023-05-02T02:15:33.591Z,612.00
2023-05-02T02:16:33.644Z,612.00
2023-05-02T02:17:33.685Z,610.00
2023-05-02T02:18:33.646Z,609.00
2023-05-02T02:19:33.776Z,610.00
2023-05-02T02:20:33.860Z,611.00
2023-05-02T02:21:34.041Z,616.00
2023-05-02T02:22:34.091Z,617.00
2023-05-02T02:23:34.105Z,614.00
2023-05-02T02:24:34.109Z,611.00
2023-05-02T02:25:34.120Z,611.00
2023-05-02T02:26:34.151Z,610.00
2023-05-02T02:27:34.121Z,609.00
2023-05-02T02:28:34.160Z,609.00
2023-05-02T02:29:34.207Z,607.00
2023-05-02T02:30:34.229Z,605.00
2023-05-02T02:31:34.453Z,606.00
2023-05-02T02:32:34.307Z,604.00
2023-05-02T02:33:34.214Z,602.00
2023-05-02T02:34:34.376Z,603.00
2023-05-02T02:35:34.246Z,604.00
2023-05-02T02:36:34.279Z,601.00
2023-05-02T02:37:34.374Z,601.00
2023-05-02T02:38:34.348Z,601.00
2023-05-02T02:39:34.364Z,600.00
2023-05-02T02:40:34.354Z,603.00
2023-05-02T02:41:34.452Z,604.00
2023-05-02T02:42:34.453Z,602.00
2023-05-02T02:43:34.469Z,600.00
2023-05-02T02:44:34.510Z,601.00
2023-05-02T02:45:34.485Z,602.00
2023-05-02T02:46:34.546Z,603.00
2023-05-02T02:47:34.652Z,605.00
2023-05-02T02:48:34.640Z,606.00
2023-05-02T02:49:34.824Z,605.00
2023-05-02T02:50:34.638Z,604.00
2023-05-02T02:51:34.748Z,605.00
2023-05-02T02:52:34.710Z,607.00
2023-05-02T02:53:34.675Z,608.00
2023-05-02T02:54:34.706Z,608.00
2023-05-02T02:55:34.711Z,609.00
2023-05-02T02:56:34.768Z,606.00
2023-05-02T02:57:34.893Z,605.00
2023-05-02T02:58:34.878Z,606.00
2023-05-02T02:59:34.916Z,607.00
2023-05-02T03:00:34.918Z,611.00
2023-05-02T03:01:34.967Z,613.00
2023-05-02T03:02:34.937Z,613.00
2023-05-02T03:03:35.064Z,612.00
2023-05-02T03:04:35.166Z,611.00
2023-05-02T03:05:35.120Z,612.00
2023-05-02T03:06:35.160Z,612.00
2023-05-02T03:07:35.140Z,609.00
2023-05-02T03:08:35.142Z,611.00
2023-05-02T03:09:35.192Z,609.00
2023-05-02T03:10:35.263Z,608.00
2023-05-02T03:11:35.294Z,609.00
2023-05-02T03:12:35.296Z,608.00
2023-05-02T03:13:35.337Z,608.00
2023-05-02T03:14:35.383Z,609.00
2023-05-02T03:15:35.322Z,610.00
2023-05-02T03:16:35.644Z,611.00
2023-05-02T03:17:35.454Z,611.00
2023-05-02T03:18:35.504Z,611.00
2023-05-02T03:19:35.466Z,614.00
2023-05-02T03:20:35.461Z,617.00
2023-05-02T03:21:35.524Z,620.00
2023-05-02T03:22:35.471Z,618.00
2023-05-02T03:23:35.470Z,616.00
2023-05-02T03:24:35.502Z,617.00
2023-05-02T03:25:35.491Z,615.00
2023-05-02T03:26:35.622Z,613.00
2023-05-02T03:27:35.619Z,611.00
2023-05-02T03:28:35.675Z,610.00
2023-05-02T03:29:35.632Z,608.00
2023-05-02T03:30:35.667Z,605.00
2023-05-02T03:31:35.726Z,605.00
2023-05-02T03:32:35.841Z,608.00
2023-05-02T03:33:35.844Z,607.00
2023-05-02T03:34:35.872Z,607.00
2023-05-02T03:35:35.843Z,609.00
2023-05-02T03:36:35.868Z,612.00
2023-05-02T03:37:35.874Z,612.00
2023-05-02T03:38:35.979Z,610.00
2023-05-02T03:39:35.989Z,609.00
2023-05-02T03:40:36.017Z,607.00
2023-05-02T03:41:36.053Z,603.00
2023-05-02T03:42:36.020Z,603.00
2023-05-02T03:43:36.074Z,604.00
2023-05-02T03:44:36.028Z,606.00
2023-05-02T03:45:36.039Z,607.00
2023-05-02T03:46:36.185Z,609.00
2023-05-02T03:47:36.110Z,613.00
2023-05-02T03:48:36.100Z,613.00
2023-05-02T03:49:36.199Z,616.00
2023-05-02T03:50:36.220Z,614.00
2023-05-02T03:51:36.247Z,616.00
2023-05-02T03:52:36.268Z,616.00
2023-05-02T03:53:36.229Z,615.00
2023-05-02T03:54:36.276Z,616.00
2023-05-02T03:55:36.375Z,617.00
2023-05-02T03:56:36.861Z,619.00
2023-05-02T03:57:36.609Z,622.00
2023-05-02T03:58:36.659Z,618.00
2023-05-02T03:59:36.767Z,617.00
2023-05-02T04:00:36.704Z,614.00
2023-05-02T04:01:36.699Z,611.00
2023-05-02T04:02:36.840Z,609.00
2023-05-02T04:03:36.826Z,608.00
2023-05-02T04:04:36.964Z,610.00
2023-05-02T04:05:36.923Z,609.00
2023-05-02T04:06:36.953Z,609.00
2023-05-02T04:07:36.948Z,609.00
2023-05-02T04:08:36.960Z,606.00
2023-05-02T04:09:37.017Z,608.00
2023-05-02T04:10:37.062Z,607.00
2023-05-02T04:11:37.259Z,609.00
2023-05-02T04:12:37.059Z,608.00
2023-05-02T04:13:37.172Z,608.00
2023-05-02T04:14:37.149Z,609.00
2023-05-02T04:15:37.124Z,610.00
2023-05-02T04:16:37.154Z,607.00
2023-05-02T04:17:37.154Z,607.00
2023-05-02T04:18:37.170Z,606.00
2023-05-02T04:19:37.212Z,605.00
2023-05-02T04:20:37.218Z,607.00
2023-05-02T04:21:37.218Z,605.00
2023-05-02T04:22:37.233Z,608.00
2023-05-02T04:23:37.253Z,607.00
2023-05-02T04:24:37.251Z,606.00
2023-05-02T04:25:37.275Z,604.00
2023-05-02T04:26:37.289Z,602.00
2023-05-02T04:27:37.275Z,604.00
2023-05-02T04:28:37.298Z,607.00
2023-05-02T04:29:37.299Z,607.00
2023-05-02T04:30:37.390Z,608.00
2023-05-02T04:31:37.340Z,603.00
2023-05-02T04:32:37.458Z,602.00
2023-05-02T04:33:37.373Z,605.00
2023-05-02T04:34:37.395Z,603.00
2023-05-02T04:35:37.374Z,603.00
2023-05-02T04:36:37.380Z,605.00
2023-05-02T04:37:38.087Z,606.00
2023-05-02T04:38:37.425Z,604.00
2023-05-02T04:39:37.458Z,606.00
2023-05-02T04:40:37.475Z,608.00
2023-05-02T04:41:37.448Z,611.00
2023-05-02T04:42:37.563Z,612.00
2023-05-02T04:43:37.680Z,613.00
2023-05-02T04:44:37.491Z,612.00
2023-05-02T04:45:37.501Z,614.00
2023-05-02T04:46:37.774Z,610.00
2023-05-02T04:47:37.651Z,611.00
2023-05-02T04:48:37.621Z,612.00
2023-05-02T04:49:37.685Z,614.00
2023-05-02T04:50:37.646Z,613.00
2023-05-02T04:51:37.669Z,618.00
2023-05-02T04:52:37.695Z,620.00
2023-05-02T04:53:37.694Z,617.00
2023-05-02T04:54:37.774Z,621.00
2023-05-02T04:55:37.740Z,617.00
2023-05-02T04:56:37.765Z,615.00
2023-05-02T04:57:37.787Z,613.00
2023-05-02T04:58:37.817Z,613.00
2023-05-02T04:59:37.811Z,613.00
2023-05-02T05:00:37.835Z,613.00
2023-05-02T05:01:37.880Z,613.00
2023-05-02T05:02:37.950Z,612.00
2023-05-02T05:03:38.267Z,608.00
2023-05-02T05:04:37.920Z,607.00
2023-05-02T05:05:38.009Z,606.00
2023-05-02T05:06:38.140Z,606.00
2023-05-02T05:07:37.972Z,607.00
2023-05-02T05:08:37.970Z,608.00
2023-05-02T05:09:38.864Z,609.00
2023-05-02T05:10:38.022Z,609.00
2023-05-02T05:11:38.013Z,609.00
2023-05-02T05:12:38.080Z,610.00
2023-05-02T05:13:38.055Z,609.00
2023-05-02T05:14:38.182Z,609.00
2023-05-02T05:15:38.147Z,610.00
2023-05-02T05:16:38.214Z,609.00
2023-05-02T05:17:38.173Z,608.00
2023-05-02T05:18:38.190Z,606.00
2023-05-02T05:19:38.138Z,606.00
2023-05-02T05:20:38.201Z,604.00
2023-05-02T05:21:38.195Z,604.00
2023-05-02T05:22:38.240Z,606.00
2023-05-02T05:23:38.258Z,607.00
2023-05-02T05:24:38.277Z,607.00
2023-05-02T05:25:38.317Z,606.00
2023-05-02T05:26:38.328Z,608.00
2023-05-02T05:27:38.992Z,610.00
2023-05-02T05:28:38.359Z,609.00
2023-05-02T05:29:38.419Z,610.00
2023-05-02T05:30:38.907Z,608.00
2023-05-02T05:31:38.403Z,608.00
2023-05-02T05:32:38.515Z,607.00
2023-05-02T05:33:38.432Z,610.00
2023-05-02T05:34:38.893Z,608.00
2023-05-02T05:35:38.469Z,598.00
2023-05-02T05:36:38.495Z,681.00
2023-05-02T05:37:39.411Z,699.00
2023-05-02T05:38:39.420Z,697.00
2023-05-02T05:39:38.450Z,705.00
2023-05-02T05:40:38.467Z,791.00
2023-05-02T05:41:38.541Z,795.00
2023-05-02T05:42:38.518Z,811.00
2023-05-02T05:43:38.573Z,825.00
2023-05-02T05:44:38.907Z,832.00
2023-05-02T05:45:38.529Z,847.00
2023-05-02T05:46:38.682Z,864.00
2023-05-02T05:47:38.681Z,896.00
2023-05-02T05:48:38.603Z,978.00
2023-05-02T05:49:39.124Z,979.00
2023-05-02T05:50:38.728Z,1009.00
2023-05-02T05:51:38.837Z,1045.00
2023-05-02T05:52:38.759Z,1059.00
2023-05-02T05:53:38.838Z,1100.00
2023-05-02T05:54:39.395Z,1131.00
2023-05-02T05:55:40.845Z,1155.00
2023-05-02T05:56:39.041Z,1217.00
2023-05-02T05:57:40.898Z,1232.00
2023-05-02T05:58:38.937Z,1280.00
2023-05-02T05:59:39.009Z,1292.00
2023-05-02T06:00:39.017Z,1314.00
2023-05-02T06:01:38.913Z,1336.00
2023-05-02T06:02:39.084Z,1361.00
2023-05-02T06:03:39.045Z,1380.00
2023-05-02T06:04:39.137Z,1377.00
2023-05-02T06:05:38.951Z,1367.00
2023-05-02T06:06:39.128Z,1364.00
2023-05-02T06:07:39.076Z,1363.00
2023-05-02T06:08:39.147Z,1359.00
2023-05-02T06:09:39.217Z,1353.00
2023-05-02T06:10:39.297Z,1354.00
2023-05-02T06:11:39.409Z,1353.00
2023-05-02T06:12:39.383Z,1355.00
2023-05-02T06:13:39.480Z,1356.00
2023-05-02T06:14:39.556Z,1358.00
2023-05-02T06:15:39.612Z,1357.00
2023-05-02T06:16:39.749Z,1356.00
2023-05-02T06:17:39.744Z,1355.00
2023-05-02T06:18:39.764Z,1353.00
2023-05-02T06:19:39.928Z,1354.00
2023-05-02T06:20:39.903Z,1351.00
2023-05-02T06:21:40.025Z,1357.00
2023-05-02T06:22:40.081Z,1356.00
2023-05-02T06:23:40.133Z,1356.00
2023-05-02T06:24:40.161Z,1354.00
2023-05-02T06:25:40.189Z,1352.00
2023-05-02T06:26:40.262Z,1350.00
2023-05-02T06:27:40.361Z,1350.00
2023-05-02T06:28:40.354Z,1348.00
2023-05-02T06:29:40.422Z,1346.00
2023-05-02T06:30:40.431Z,1346.00
2023-05-02T06:31:40.535Z,1347.00
2023-05-02T06:32:40.632Z,1347.00
2023-05-02T06:33:40.604Z,1345.00
2023-05-02T06:34:40.609Z,1343.00
2023-05-02T06:35:40.632Z,1342.00
2023-05-02T06:36:40.740Z,1339.00
2023-05-02T06:37:40.924Z,1338.00
2023-05-02T06:38:40.741Z,1337.00
2023-05-02T06:39:40.959Z,1335.00
2023-05-02T06:40:40.919Z,1332.00
2023-05-02T06:41:40.956Z,1330.00
2023-05-02T06:42:40.971Z,1326.00
2023-05-02T06:43:41.020Z,1326.00
2023-05-02T06:44:40.951Z,1325.00
2023-05-02T06:45:41.018Z,1327.00
2023-05-02T06:46:41.976Z,1324.00
2023-05-02T06:47:41.040Z,1322.00
2023-05-02T06:48:41.058Z,1326.00
2023-05-02T06:49:41.114Z,1331.00
2023-05-02T06:50:41.081Z,1327.00
2023-05-02T06:51:41.110Z,1325.00
2023-05-02T06:52:41.177Z,1322.00
2023-05-02T06:53:41.230Z,1321.00
2023-05-02T06:54:41.392Z,1324.00
2023-05-02T06:55:41.354Z,1320.00
2023-05-02T06:56:41.415Z,1320.00
2023-05-02T06:57:41.932Z,1319.00
2023-05-02T06:58:41.415Z,1323.00
2023-05-02T06:59:41.421Z,1324.00
2023-05-02T07:00:41.542Z,1323.00
2023-05-02T07:01:41.741Z,1322.00
2023-05-02T07:02:41.599Z,1320.00
2023-05-02T07:03:41.498Z,1317.00
2023-05-02T07:04:41.549Z,1316.00
2023-05-02T07:05:41.481Z,1317.00
2023-05-02T07:06:41.585Z,1321.00
2023-05-02T07:07:41.675Z,1323.00
2023-05-02T07:08:41.636Z,1319.00
2023-05-02T07:09:41.550Z,1315.00
2023-05-02T07:10:41.567Z,1315.00
2023-05-02T07:11:41.639Z,1317.00
2023-05-02T07:12:41.601Z,1321.00
2023-05-02T07:13:41.599Z,1319.00
2023-05-02T07:14:41.849Z,1317.00
2023-05-02T07:15:41.657Z,1315.00
2023-05-02T07:16:41.627Z,1311.00
2023-05-02T07:17:42.036Z,1311.00
2023-05-02T07:18:41.690Z,1309.00
2023-05-02T07:19:43.371Z,1309.00
2023-05-02T07:20:41.730Z,1309.00
2023-05-02T07:21:41.811Z,1306.00
2023-05-02T07:22:41.718Z,1302.00
2023-05-02T07:23:41.682Z,1303.00
2023-05-02T07:24:41.668Z,1306.00
2023-05-02T07:25:41.786Z,1308.00
2023-05-02T07:26:41.734Z,1307.00
2023-05-02T07:27:41.657Z,1305.00
2023-05-02T07:28:41.722Z,1306.00
2023-05-02T07:29:41.648Z,1306.00
2023-05-02T07:30:41.600Z,1304.00
2023-05-02T07:31:41.657Z,1303.00
2023-05-02T07:32:42.505Z,1300.00
2023-05-02T07:33:41.618Z,1300.00
2023-05-02T07:34:42.003Z,1297.00
2023-05-02T07:35:41.658Z,1297.00
2023-05-02T07:36:41.629Z,1297.00
2023-05-02T07:37:41.641Z,1293.00
2023-05-02T07:38:41.650Z,1293.00
2023-05-02T07:39:42.093Z,1290.00
2023-05-02T07:40:41.696Z,1289.00
2023-05-02T07:41:41.551Z,1288.00
2023-05-02T07:42:41.659Z,1285.00
2023-05-02T07:43:41.546Z,1288.00
2023-05-02T07:44:41.633Z,1288.00
2023-05-02T07:45:41.570Z,1287.00
2023-05-02T07:46:41.603Z,1283.00
2023-05-02T07:47:41.596Z,1281.00
2023-05-02T07:48:41.517Z,1281.00
2023-05-02T07:49:41.522Z,1278.00
2023-05-02T07:50:41.520Z,1278.00
2023-05-02T07:51:41.480Z,1278.00
2023-05-02T07:52:41.508Z,1278.00
2023-05-02T07:53:41.489Z,1277.00
2023-05-02T07:54:41.954Z,1275.00
2023-05-02T07:55:41.502Z,1275.00
2023-05-02T07:56:41.520Z,1273.00
2023-05-02T07:57:41.957Z,1272.00
2023-05-02T07:58:41.427Z,1272.00
2023-05-02T07:59:41.423Z,1273.00
2023-05-02T08:00:41.453Z,1275.00
2023-05-02T08:01:41.446Z,1276.00
2023-05-02T08:02:41.471Z,1275.00
2023-05-02T08:03:41.574Z,1272.00
2023-05-02T08:04:41.542Z,1272.00
2023-05-02T08:05:41.383Z,1273.00
2023-05-02T08:06:41.418Z,1273.00
2023-05-02T08:07:41.383Z,1275.00
2023-05-02T08:08:41.402Z,1276.00
2023-05-02T08:09:41.353Z,1273.00
2023-05-02T08:10:41.388Z,1270.00
2023-05-02T08:11:41.404Z,1269.00
2023-05-02T08:12:41.385Z,1266.00
2023-05-02T08:13:41.414Z,1265.00
2023-05-02T08:14:41.359Z,1266.00
2023-05-02T08:15:41.564Z,1264.00
2023-05-02T08:16:42.905Z,1260.00
2023-05-02T08:17:41.362Z,1260.00
2023-05-02T08:18:41.342Z,1261.00
2023-05-02T08:19:41.290Z,1261.00
2023-05-02T08:20:41.465Z,1261.00
2023-05-02T08:21:41.324Z,1261.00
2023-05-02T08:22:41.308Z,1258.00
2023-05-02T08:23:41.263Z,1257.00
2023-05-02T08:24:41.274Z,1256.00
2023-05-02T08:25:41.264Z,1255.00
2023-05-02T08:26:41.342Z,1253.00
2023-05-02T08:27:41.530Z,1255.00
2023-05-02T08:28:41.382Z,1258.00
2023-05-02T08:29:41.236Z,1254.00
2023-05-02T08:30:41.293Z,1253.00
2023-05-02T08:31:41.243Z,1250.00
2023-05-02T08:32:42.049Z,1254.00
2023-05-02T08:33:41.188Z,1253.00
2023-05-02T08:34:41.230Z,1256.00
2023-05-02T08:35:41.210Z,1254.00
2023-05-02T08:36:41.163Z,1255.00
2023-05-02T08:37:41.224Z,1254.00
2023-05-02T08:38:41.379Z,1251.00
2023-05-02T08:39:41.156Z,1245.00
2023-05-02T08:40:42.580Z,1242.00
2023-05-02T08:41:41.133Z,1245.00
2023-05-02T08:42:41.502Z,1244.00
2023-05-02T08:43:41.127Z,1246.00
2023-05-02T08:44:41.149Z,1248.00
2023-05-02T08:45:41.102Z,1249.00
2023-05-02T08:46:41.165Z,1250.00
2023-05-02T08:47:41.162Z,1250.00
2023-05-02T08:48:41.165Z,1249.00
2023-05-02T08:49:41.098Z,1248.00
2023-05-02T08:50:41.083Z,1248.00
2023-05-02T08:51:42.297Z,1247.00
2023-05-02T08:52:41.158Z,1246.00
2023-05-02T08:53:41.215Z,1246.00
2023-05-02T08:54:41.212Z,1245.00
2023-05-02T08:55:41.256Z,1242.00
2023-05-02T08:56:41.181Z,1242.00
2023-05-02T08:57:41.207Z,1239.00
2023-05-02T08:58:41.343Z,1238.00
2023-05-02T08:59:41.461Z,1239.00
2023-05-02T09:00:41.402Z,1240.00
2023-05-02T09:01:41.615Z,1239.00
2023-05-02T09:02:41.622Z,1236.00
2023-05-02T09:03:41.686Z,1239.00
2023-05-02T09:04:41.847Z,1239.00
2023-05-02T09:05:41.699Z,1237.00
2023-05-02T09:06:41.836Z,1237.00
2023-05-02T09:07:41.749Z,1238.00
2023-05-02T09:08:41.795Z,1238.00
2023-05-02T09:09:41.787Z,1237.00
2023-05-02T09:10:41.848Z,1234.00
2023-05-02T09:11:41.923Z,1236.00
2023-05-02T09:12:41.886Z,1237.00
2023-05-02T09:13:42.032Z,1236.00
2023-05-02T09:14:42.007Z,1239.00
2023-05-02T09:15:42.058Z,1238.00
2023-05-02T09:16:42.260Z,1240.00
2023-05-02T09:17:42.223Z,1240.00
2023-05-02T09:18:42.209Z,1238.00
2023-05-02T09:19:42.281Z,1236.00
2023-05-02T09:20:42.323Z,1238.00
2023-05-02T09:21:42.402Z,1236.00
2023-05-02T09:22:42.398Z,1239.00
2023-05-02T09:23:42.422Z,1239.00
2023-05-02T09:24:42.408Z,1239.00
2023-05-02T09:25:42.454Z,1236.00
2023-05-02T09:26:42.517Z,1238.00
2023-05-02T09:27:42.568Z,1237.00
2023-05-02T09:28:42.973Z,1235.00
2023-05-02T09:29:42.733Z,1234.00
2023-05-02T09:30:42.851Z,1230.00
2023-05-02T09:32:42.809Z,1229.00
2023-05-02T09:33:42.747Z,1229.00
2023-05-02T09:34:43.498Z,1228.00
2023-05-02T09:35:42.765Z,1230.00
2023-05-02T09:36:42.726Z,1231.00
2023-05-02T09:37:42.717Z,1231.00
2023-05-02T09:38:43.025Z,1228.00
2023-05-02T09:39:42.680Z,1227.00
2023-05-02T09:40:43.548Z,1224.00
2023-05-02T09:41:42.792Z,1223.00
2023-05-02T09:42:42.998Z,1220.00
2023-05-02T09:43:45.517Z,1217.00
2023-05-02T09:44:42.791Z,1219.00
2023-05-02T09:45:43.092Z,1218.00
2023-05-02T09:46:43.049Z,1214.00
2023-05-02T09:47:42.757Z,1216.00
2023-05-02T09:48:42.684Z,1222.00
2023-05-02T09:49:42.704Z,1222.00
2023-05-02T09:50:43.550Z,1221.00
2023-05-02T09:51:43.562Z,1222.00
2023-05-02T09:52:42.627Z,1218.00
2023-05-02T09:53:42.687Z,1218.00
2023-05-02T09:54:42.613Z,1215.00
2023-05-02T09:55:42.617Z,1214.00
2023-05-02T09:56:42.577Z,1211.00
2023-05-02T09:57:42.570Z,1212.00
2023-05-02T09:58:42.585Z,1212.00
2023-05-02T09:59:42.555Z,1211.00
2023-05-02T10:00:42.567Z,1210.00
2023-05-02T10:01:42.576Z,1209.00
2023-05-02T10:02:42.544Z,1212.00
2023-05-02T10:03:42.566Z,1211.00
2023-05-02T10:04:42.673Z,1209.00
2023-05-02T10:05:42.533Z,1209.00
2023-05-02T10:06:42.541Z,1209.00
2023-05-02T10:07:42.494Z,1211.00
2023-05-02T10:08:42.566Z,1212.00
2023-05-02T10:09:42.613Z,1216.00
2023-05-02T10:10:42.485Z,1217.00
2023-05-02T10:11:42.471Z,1216.00
2023-05-02T10:12:42.532Z,1216.00
2023-05-02T10:13:42.650Z,1217.00
2023-05-02T10:14:42.668Z,1216.00
2023-05-02T10:15:42.752Z,1213.00
2023-05-02T10:16:42.853Z,1208.00
2023-05-02T10:17:42.974Z,1209.00
2023-05-02T10:18:43.071Z,1208.00
2023-05-02T10:19:42.979Z,1208.00
2023-05-02T10:20:43.037Z,1206.00
2023-05-02T10:21:43.113Z,1202.00
2023-05-02T10:22:43.200Z,1203.00
2023-05-02T10:23:43.220Z,1206.00
2023-05-02T10:24:43.314Z,1207.00
2023-05-02T10:25:43.384Z,1205.00
2023-05-02T10:26:43.407Z,1205.00
2023-05-02T10:27:43.478Z,1204.00
2023-05-02T10:28:44.109Z,1203.00
2023-05-02T10:29:43.577Z,1204.00
2023-05-02T10:30:43.897Z,1203.00
2023-05-02T10:31:45.026Z,1204.00
2023-05-02T10:32:43.905Z,1205.00
2023-05-02T10:33:43.901Z,1208.00
2023-05-02T10:34:43.930Z,1204.00
2023-05-02T10:35:43.919Z,1204.00
2023-05-02T10:36:44.231Z,1202.00
2023-05-02T10:37:44.164Z,1200.00
2023-05-02T10:38:44.134Z,1199.00
2023-05-02T10:39:44.173Z,1201.00
2023-05-02T10:40:44.228Z,1202.00
2023-05-02T10:41:44.295Z,1203.00
2023-05-02T10:42:44.369Z,1202.00
2023-05-02T10:43:44.546Z,1201.00
2023-05-02T10:44:44.537Z,1201.00
2023-05-02T10:45:44.533Z,1198.00
2023-05-02T10:46:44.686Z,1198.00
2023-05-02T10:47:44.693Z,1199.00
2023-05-02T10:48:44.737Z,1195.00
2023-05-02T10:49:44.815Z,1189.00
2023-05-02T10:50:44.862Z,1185.00
2023-05-02T10:51:44.899Z,1184.00
2023-05-02T10:52:44.983Z,1182.00
2023-05-02T10:53:45.080Z,1184.00
2023-05-02T10:54:45.159Z,1182.00
2023-05-02T10:55:45.132Z,1180.00
2023-05-02T10:56:45.242Z,1212.00
2023-05-02T10:57:45.256Z,1292.00
2023-05-02T10:58:45.392Z,1297.00
2023-05-02T10:59:45.369Z,1335.00
2023-05-02T11:00:45.468Z,1368.00
2023-05-02T11:01:45.806Z,1398.00
2023-05-02T11:02:45.608Z,1449.00
2023-05-02T11:03:45.613Z,1484.00
2023-05-02T11:04:45.648Z,1569.00
2023-05-02T11:05:45.775Z,1584.00
2023-05-02T11:06:45.797Z,1595.00
2023-05-02T11:07:45.730Z,1655.00
2023-05-02T11:08:45.772Z,1675.00
2023-05-02T11:09:45.795Z,1717.00
2023-05-02T11:10:45.820Z,1803.00
2023-05-02T11:11:45.924Z,1814.00
2023-05-02T11:12:45.898Z,1836.00
2023-05-02T11:13:45.916Z,1885.00
2023-05-02T11:14:46.011Z,1930.00
2023-05-02T11:15:45.951Z,1945.00
2023-05-02T11:16:46.015Z,2014.00
2023-05-02T11:17:46.061Z,2036.00
2023-05-02T11:18:46.007Z,2060.00
2023-05-02T11:19:45.989Z,2173.00
2023-05-02T11:20:46.086Z,2172.00
2023-05-02T11:21:46.097Z,2159.00
2023-05-02T11:22:46.065Z,2147.00
2023-05-02T11:23:46.055Z,2110.00
2023-05-02T11:24:46.098Z,2101.00
2023-05-02T11:25:46.099Z,2091.00
2023-05-02T11:26:46.106Z,2083.00
2023-05-02T11:27:46.197Z,2073.00
2023-05-02T11:28:46.165Z,2063.00
2023-05-02T11:29:46.243Z,2062.00
2023-05-02T11:30:46.223Z,2061.00
2023-05-02T11:31:46.316Z,2063.00
2023-05-02T11:32:46.423Z,2059.00
2023-05-02T11:33:46.313Z,2058.00
2023-05-02T11:34:46.315Z,2054.00
2023-05-02T11:35:46.380Z,2051.00
2023-05-02T11:36:46.410Z,2044.00
2023-05-02T11:37:46.405Z,2040.00
2023-05-02T11:38:46.492Z,2035.00
2023-05-02T11:39:46.487Z,2030.00
2023-05-02T11:40:46.549Z,2026.00
2023-05-02T11:41:46.523Z,2023.00
2023-05-02T11:42:46.550Z,2023.00
2023-05-02T11:43:46.607Z,2023.00
2023-05-02T11:44:46.646Z,2018.00
2023-05-02T11:45:47.104Z,2020.00
2023-05-02T11:46:46.776Z,2017.00
2023-05-02T11:47:46.711Z,2017.00
2023-05-02T11:48:47.099Z,2014.00
2023-05-02T11:49:46.750Z,2013.00
2023-05-02T11:50:49.660Z,2008.00
2023-05-02T11:51:46.843Z,2006.00
2023-05-02T11:52:54.339Z,2002.00
2023-05-02T11:53:46.782Z,2002.00
2023-05-02T11:54:46.745Z,1997.00
2023-05-02T11:55:46.718Z,1996.00
2023-05-02T11:56:46.753Z,2001.00
2023-05-02T11:57:46.712Z,1999.00
2023-05-02T11:58:47.068Z,2002.00
2023-05-02T11:59:46.728Z,2004.00
2023-05-02T12:00:47.067Z,2006.00
2023-05-02T12:01:46.723Z,2005.00
2023-05-02T12:02:46.816Z,2004.00
2023-05-02T12:03:47.200Z,2006.00
2023-05-02T12:04:46.690Z,2007.00
2023-05-02T12:05:46.812Z,2011.00
2023-05-02T12:06:46.791Z,2010.00
2023-05-02T12:07:46.668Z,2006.00
2023-05-02T12:08:47.090Z,2006.00
2023-05-02T12:09:46.661Z,2007.00
2023-05-02T12:10:46.680Z,2008.00
2023-05-02T12:11:46.750Z,2007.00
2023-05-02T12:12:46.789Z,2010.00
2023-05-02T12:13:46.815Z,2012.00
2023-05-02T12:14:46.802Z,2016.00
2023-05-02T12:15:46.900Z,2025.00
2023-05-02T12:16:46.905Z,2024.00
2023-05-02T12:17:46.962Z,2025.00